Time;durP1;ratioP1;P1;durP2;ratioP2;P2;SDS_P1;SDS_P2;PMS_P1;PMS_P2;Temp;Humidity;BMP_temperature;BMP_pressure;BME280_temperature;BME280_humidity;BME280_pressure;Samples;Min_cycle;Max_cycle;Signal;HPM_P1;HPM_P2
2022/04/19 00:00:54;;;;;;;0.82;0.30;;;;;;;19.67;41.48;100371.09;4956163;28;20027;-49
2022/04/19 00:03:20;;;;;;;3.80;0.40;;;;;;;19.67;41.70;100377.19;4956902;28;20030;-55
2022/04/19 00:05:46;;;;;;;0.98;0.50;;;;;;;19.66;41.43;100370.28;4957031;28;20038;-49
2022/04/19 00:08:13;;;;;;;2.13;0.50;;;;;;;19.67;41.40;100363.16;4957885;28;20030;-50
2022/04/19 00:10:40;;;;;;;3.15;0.60;;;;;;;19.66;41.53;100364.16;4958976;28;20062;-49
2022/04/19 00:13:07;;;;;;;1.02;0.40;;;;;;;19.65;41.46;100368.66;4957563;28;21636;-51
2022/04/19 00:15:33;;;;;;;0.98;0.50;;;;;;;19.64;41.38;100363.56;4956714;28;20097;-51
2022/04/19 00:18:00;;;;;;;1.10;0.30;;;;;;;19.64;41.41;100361.72;4956298;28;20043;-50
2022/04/19 00:20:26;;;;;;;1.33;0.40;;;;;;;19.64;41.33;100358.28;4954279;28;20186;-53
2022/04/19 00:22:52;;;;;;;1.02;0.40;;;;;;;19.65;41.41;100359.91;4957392;28;20583;-51
2022/04/19 00:25:18;;;;;;;3.22;1.25;;;;;;;19.65;41.39;100359.91;4957802;28;20145;-46
2022/04/19 00:27:44;;;;;;;0.65;0.35;;;;;;;19.65;41.58;100349.31;4958584;28;20042;-52
2022/04/19 00:30:10;;;;;;;1.13;0.47;;;;;;;19.65;41.40;100354.63;4956065;28;20035;-52
2022/04/19 00:32:37;;;;;;;2.47;0.40;;;;;;;19.64;41.64;100337.94;4960581;28;20133;-48
2022/04/19 00:35:04;;;;;;;1.10;0.30;;;;;;;19.65;41.56;100333.47;4958671;28;20034;-50
2022/04/19 00:37:29;;;;;;;1.70;0.40;;;;;;;19.64;41.69;100334.50;4956336;28;20035;-51
2022/04/19 00:39:58;;;;;;;1.02;0.40;;;;;;;19.64;41.39;100330.03;4958835;28;20757;-47
2022/04/19 00:42:28;;;;;;;1.05;0.30;;;;;;;19.64;41.42;100334.50;4960347;28;20812;-47
2022/04/19 00:45:06;;;;;;;0.90;0.40;;;;;;;19.63;41.63;100330.22;4955403;28;20035;-52
2022/04/19 00:47:32;;;;;;;1.02;0.30;;;;;;;19.65;41.68;100323.72;4956572;28;20031;-51
2022/04/19 00:50:02;;;;;;;1.55;0.40;;;;;;;19.66;41.63;100325.34;4959059;28;20491;-51
2022/04/19 00:52:29;;;;;;;2.53;0.40;;;;;;;19.66;41.33;100319.25;4959099;28;20050;-51
2022/04/19 00:54:55;;;;;;;1.40;0.30;;;;;;;19.67;41.52;100307.66;4956410;28;20488;-48
2022/04/19 00:57:22;;;;;;;1.65;0.40;;;;;;;19.67;41.53;100310.28;4956714;28;20057;-48
2022/04/19 00:59:48;;;;;;;2.22;0.40;;;;;;;19.67;41.45;100311.09;4954569;28;20425;-54
2022/04/19 01:02:14;;;;;;;1.80;0.38;;;;;;;19.69;41.52;100310.91;4957331;28;20038;-52
2022/04/19 01:04:39;;;;;;;1.88;0.30;;;;;;;19.68;41.51;100307.44;4958415;28;20030;-49
2022/04/19 01:07:05;;;;;;;0.88;0.30;;;;;;;19.69;41.55;100308.25;4955717;28;20031;-50
2022/04/19 01:09:31;;;;;;;1.13;0.40;;;;;;;19.70;41.45;100304.59;4959983;28;20457;-48
2022/04/19 01:14:40;;;;;;;1.30;0.38;;;;;;;19.69;41.78;100300.31;4957467;28;20134;-49
2022/04/19 01:17:09;;;;;;;0.80;0.30;;;;;;;19.69;41.63;100295.03;4957760;28;20026;-48
2022/04/19 01:19:38;;;;;;;0.85;0.40;;;;;;;19.66;41.64;100293.63;4957584;28;20034;-51
2022/04/19 01:22:04;;;;;;;1.20;0.35;;;;;;;19.66;41.60;100298.91;4951173;28;20069;-49
2022/04/19 01:24:29;;;;;;;1.30;0.40;;;;;;;19.67;41.85;100302.38;4957189;28;20035;-46
2022/04/19 01:26:57;;;;;;;2.33;0.47;;;;;;;19.66;41.86;100292.81;4958917;28;20756;-48
2022/04/19 01:29:24;;;;;;;1.42;0.38;;;;;;;19.65;41.81;100297.28;4957903;28;20093;-48
2022/04/19 01:31:51;;;;;;;2.90;0.50;;;;;;;19.65;41.89;100293.84;4960118;28;20370;-51
2022/04/19 01:34:17;;;;;;;1.35;0.40;;;;;;;19.66;41.91;100293.63;4960078;28;20077;-48
2022/04/19 01:36:43;;;;;;;0.80;0.50;;;;;;;19.66;41.96;100287.53;4965814;28;20042;-49
2022/04/19 01:39:10;;;;;;;1.25;0.50;;;;;;;19.65;41.69;100288.53;4964263;28;20038;-50
2022/04/19 01:41:37;;;;;;;1.05;0.30;;;;;;;19.66;41.80;100279.59;4963356;28;20039;-51
2022/04/19 01:44:05;;;;;;;1.27;0.40;;;;;;;19.65;41.79;100277.97;4962053;28;20133;-53
2022/04/19 01:46:33;;;;;;;1.00;0.40;;;;;;;19.64;41.95;100282.44;4964305;28;20085;-50
2022/04/19 01:49:01;;;;;;;0.90;0.30;;;;;;;19.64;41.69;100279.00;4964718;28;20619;-48
2022/04/19 01:51:27;;;;;;;0.80;0.40;;;;;;;19.64;41.70;100282.44;4963777;28;20652;-50
2022/04/19 01:53:52;;;;;;;0.68;0.40;;;;;;;19.63;41.96;100278.19;4963089;28;20034;-48
2022/04/19 01:56:18;;;;;;;0.73;0.30;;;;;;;19.62;41.74;100273.91;4964042;28;20045;-49
2022/04/19 01:58:44;;;;;;;0.88;0.40;;;;;;;19.62;41.95;100270.47;4961673;28;20467;-52
2022/04/19 02:01:10;;;;;;;1.35;0.32;;;;;;;19.62;41.87;100268.63;4964990;28;20101;-49
2022/04/19 02:03:35;;;;;;;0.57;0.40;;;;;;;19.62;41.78;100267.81;4965333;28;20035;-51
2022/04/19 02:06:05;;;;;;;0.82;0.40;;;;;;;19.61;41.75;100269.66;4962158;28;20027;-49
2022/04/19 02:08:31;;;;;;;0.70;0.40;;;;;;;19.60;42.03;100261.94;4960569;28;20030;-51
2022/04/19 02:13:27;;;;;;;0.60;0.30;;;;;;;19.60;41.95;100261.94;4957520;23;20116;-53
2022/04/19 02:15:52;;;;;;;1.55;0.30;;;;;;;19.61;42.10;100258.25;5003079;28;20034;-49
2022/04/19 02:18:19;;;;;;;0.70;0.30;;;;;;;19.59;42.07;100249.72;5002052;28;20048;-52
2022/04/19 02:20:45;;;;;;;1.13;0.30;;;;;;;19.58;42.15;100256.03;5003913;28;20072;-52
2022/04/19 02:23:11;;;;;;;1.20;0.40;;;;;;;19.57;42.20;100257.06;5005190;28;20066;-51
2022/04/19 02:25:37;;;;;;;0.82;0.50;;;;;;;19.57;42.01;100251.78;5004778;28;20038;-50
2022/04/19 02:28:06;;;;;;;1.25;0.40;;;;;;;19.57;41.96;100251.78;5005904;28;20560;-48
2022/04/19 02:30:32;;;;;;;2.15;0.28;;;;;;;19.57;41.86;100249.13;5006069;28;20041;-50
2022/04/19 02:32:58;;;;;;;0.52;0.30;;;;;;;19.56;42.30;100248.31;5006574;28;20017;-52
2022/04/19 02:35:23;;;;;;;3.10;0.55;;;;;;;19.57;42.20;100252.59;5004893;28;20026;-49
2022/04/19 02:37:54;;;;;;;1.40;0.40;;;;;;;19.58;42.09;100245.47;5004565;28;20168;-52
2022/04/19 02:40:21;;;;;;;0.73;0.30;;;;;;;19.57;41.88;100252.59;5006455;28;20108;-50
2022/04/19 02:42:48;;;;;;;1.00;0.52;;;;;;;19.58;42.13;100245.47;5006319;28;20030;-50
2022/04/19 02:45:13;;;;;;;1.00;0.40;;;;;;;19.58;42.19;100248.09;5002405;28;20037;-52
2022/04/19 02:47:41;;;;;;;0.80;0.30;;;;;;;19.56;41.98;100237.75;5002131;28;20382;-54
2022/04/19 02:50:07;;;;;;;0.60;0.20;;;;;;;19.56;42.18;100240.38;5002577;28;20037;-49
2022/04/19 02:52:32;;;;;;;1.13;0.40;;;;;;;19.58;42.09;100240.19;5002215;28;20036;-51
2022/04/19 02:54:57;;;;;;;2.50;0.30;;;;;;;19.57;42.11;100238.56;5002258;28;20030;-49
2022/04/19 02:57:23;;;;;;;0.60;0.30;;;;;;;19.58;42.15;100245.47;5002254;28;20378;-53
2022/04/19 02:59:48;;;;;;;0.95;0.30;;;;;;;19.57;42.33;100239.38;5002864;28;20030;-50
2022/04/19 03:02:14;;;;;;;0.82;0.30;;;;;;;19.59;42.26;100247.91;5002303;28;20029;-52
2022/04/19 03:04:41;;;;;;;1.77;0.30;;;;;;;19.60;42.12;100238.16;5001509;28;20021;-52
2022/04/19 03:07:06;;;;;;;1.30;0.40;;;;;;;19.61;42.20;100237.13;5000510;28;20503;-51
2022/04/19 03:09:32;;;;;;;0.57;0.28;;;;;;;19.61;42.25;100237.13;5002119;28;20034;-50
2022/04/19 03:11:57;;;;;;;0.90;0.40;;;;;;;19.62;42.41;100230.81;5001610;28;20042;-49
2022/04/19 03:14:25;;;;;;;2.15;0.40;;;;;;;19.62;42.10;100228.19;5000207;28;20033;-52
2022/04/19 03:16:51;;;;;;;1.17;0.40;;;;;;;19.62;42.26;100233.47;5001966;28;20129;-54
2022/04/19 03:19:16;;;;;;;1.23;0.40;;;;;;;19.62;42.28;100221.06;5000712;28;20037;-50
2022/04/19 03:21:42;;;;;;;0.73;0.30;;;;;;;19.63;42.24;100229.81;5002436;28;20022;-51
2022/04/19 03:29:53;;;;;;;3.67;0.30;;;;;;;19.59;42.37;100224.13;4938641;28;20045;-50
2022/04/19 03:32:19;;;;;;;0.50;0.30;;;;;;;19.59;42.18;100218.03;4939919;28;20031;-51
2022/04/19 03:34:46;;;;;;;0.65;0.30;;;;;;;19.59;42.25;100218.03;4938009;29;20051;-51
2022/04/19 03:37:11;;;;;;;1.48;0.30;;;;;;;19.60;42.10;100214.34;4941111;28;20610;-53
2022/04/19 03:39:37;;;;;;;0.93;0.30;;;;;;;19.60;42.28;100217.00;4938168;28;20035;-49
2022/04/19 03:42:02;;;;;;;0.70;0.40;;;;;;;19.59;42.10;100208.25;4939111;28;20537;-51
2022/04/19 03:44:31;;;;;;;1.02;0.30;;;;;;;19.60;42.15;100211.72;4938890;28;20043;-50
2022/04/19 03:47:09;;;;;;;1.15;0.30;;;;;;;19.59;41.99;100208.25;4940009;28;20032;-51
2022/04/19 03:49:44;;;;;;;1.25;0.30;;;;;;;19.57;42.06;100212.94;4939767;28;20463;-52
2022/04/19 03:52:10;;;;;;;0.85;0.30;;;;;;;19.57;42.21;100205.03;4938617;28;20122;-49
2022/04/19 03:54:37;;;;;;;0.60;0.20;;;;;;;19.57;42.12;100204.22;4937987;28;20055;-51
2022/04/19 03:57:04;;;;;;;0.88;0.30;;;;;;;19.57;42.11;100209.50;4939474;28;20046;-52
2022/04/19 03:59:38;;;;;;;2.10;0.52;;;;;;;19.55;42.08;100210.50;4938445;28;20042;-53
2022/04/19 04:02:06;;;;;;;0.55;0.28;;;;;;;19.55;41.90;100207.88;4991009;28;20045;-51
2022/04/19 04:04:34;;;;;;;0.60;0.30;;;;;;;19.54;41.95;100208.88;5001049;28;20468;-49
2022/04/19 04:07:00;;;;;;;0.70;0.30;;;;;;;19.55;42.07;100207.88;4998297;28;20026;-49
2022/04/19 04:09:32;;;;;;;0.40;0.22;;;;;;;19.55;42.06;100214.97;4996697;28;20033;-50
2022/04/19 04:12:00;;;;;;;0.60;0.22;;;;;;;19.54;41.92;100213.34;5000349;28;20057;-51
2022/04/19 04:14:26;;;;;;;0.60;0.30;;;;;;;19.54;42.03;100216.00;4999969;28;20087;-50
2022/04/19 04:16:51;;;;;;;1.45;0.20;;;;;;;19.53;42.11;100209.91;4999448;28;20042;-51
2022/04/19 04:19:17;;;;;;;1.45;0.60;;;;;;;19.51;42.05;100209.31;5000259;28;20034;-52
2022/04/19 04:21:43;;;;;;;0.93;0.30;;;;;;;19.51;42.00;100206.66;4999017;28;20972;-53
2022/04/19 04:24:08;;;;;;;0.95;0.30;;;;;;;19.52;42.19;100212.75;4996339;28;20033;-51
2022/04/19 04:26:33;;;;;;;0.50;0.20;;;;;;;19.51;42.00;100216.41;4999008;28;20556;-51
2022/04/19 04:28:59;;;;;;;0.85;0.30;;;;;;;19.50;41.98;100210.28;5000635;28;20037;-50
2022/04/19 04:31:24;;;;;;;0.63;0.30;;;;;;;19.50;42.06;100209.47;4999356;28;20037;-52
2022/04/19 04:33:50;;;;;;;0.80;0.30;;;;;;;19.49;42.16;100211.31;4998674;28;20030;-50
2022/04/19 04:36:15;;;;;;;0.80;0.30;;;;;;;19.49;42.00;100211.31;5003997;28;20030;-49
2022/04/19 04:38:40;;;;;;;0.95;0.30;;;;;;;19.50;42.19;100204.19;5004441;28;20389;-47
2022/04/19 04:41:06;;;;;;;0.60;0.20;;;;;;;19.50;41.97;100209.47;5005362;28;20640;-51
2022/04/19 04:43:31;;;;;;;0.60;0.20;;;;;;;19.49;41.82;100200.75;5006275;28;20033;-49
2022/04/19 04:51:27;;;;;;;0.50;0.20;;;;;;;19.50;42.13;100209.47;5004614;28;20076;-51
2022/04/19 04:53:52;;;;;;;2.22;0.30;;;;;;;19.50;42.09;100202.38;5003951;28;20030;-55
2022/04/19 04:56:17;;;;;;;2.15;0.20;;;;;;;19.50;42.01;100210.28;5004630;28;20061;-54
2022/04/19 04:58:43;;;;;;;1.23;0.20;;;;;;;19.50;41.87;100206.84;5006769;28;20465;-52
2022/04/19 05:01:08;;;;;;;2.25;0.35;;;;;;;19.50;41.89;100201.56;5000939;28;20462;-53
2022/04/19 05:03:34;;;;;;;0.98;0.30;;;;;;;19.49;42.12;100200.75;5005478;28;20036;-55
2022/04/19 05:05:59;;;;;;;2.55;0.50;;;;;;;19.50;42.21;100199.72;5005505;28;20030;-50
2022/04/19 05:08:24;;;;;;;3.80;0.30;;;;;;;19.50;42.26;100204.19;5003228;28;20052;-49
2022/04/19 05:10:50;;;;;;;3.50;0.40;;;;;;;19.52;42.43;100203.00;5001236;28;20111;-52
2022/04/19 05:13:15;;;;;;;1.27;0.40;;;;;;;19.53;42.75;100207.25;5004882;28;20034;-52
2022/04/19 05:15:41;;;;;;;5.97;0.50;;;;;;;19.53;42.64;100207.25;4999802;28;20030;-51
2022/04/19 05:18:06;;;;;;;1.10;0.25;;;;;;;19.53;42.68;100209.91;4999567;28;20105;-53
2022/04/19 05:20:32;;;;;;;3.97;0.50;;;;;;;19.54;42.72;100211.53;5004794;28;20726;-53
2022/04/19 05:22:57;;;;;;;3.22;0.30;;;;;;;19.55;42.86;100207.06;5005805;28;20116;-48
2022/04/19 05:25:22;;;;;;;4.90;0.40;;;;;;;19.57;42.76;100214.78;5000510;28;20036;-53
2022/04/19 05:27:48;;;;;;;3.67;0.40;;;;;;;19.55;42.53;100207.88;5004809;28;20088;-51
2022/04/19 05:30:13;;;;;;;2.55;0.40;;;;;;;19.57;42.46;100209.50;5007013;28;20533;-53
2022/04/19 05:32:38;;;;;;;1.70;0.40;;;;;;;19.57;42.71;100214.78;5005638;28;20434;-53
2022/04/19 05:35:04;;;;;;;0.88;0.25;;;;;;;19.56;42.71;100203.41;5006741;28;20028;-51
2022/04/19 05:37:30;;;;;;;1.90;0.30;;;;;;;19.54;42.75;100206.25;5005022;28;20034;-52
2022/04/19 05:39:55;;;;;;;2.08;0.30;;;;;;;19.54;42.44;100205.44;5000681;28;20735;-53
2022/04/19 05:42:21;;;;;;;2.70;0.40;;;;;;;19.54;42.60;100198.31;5000142;28;20040;-53
2022/04/19 05:44:46;;;;;;;6.88;0.40;;;;;;;19.54;42.52;100200.16;5005649;28;20472;-52
2022/04/19 05:47:14;;;;;;;1.45;0.30;;;;;;;19.53;42.23;100199.34;5004499;28;20117;-50
2022/04/19 05:49:40;;;;;;;0.85;0.30;;;;;;;19.53;42.19;100199.34;5004776;28;20880;-51
2022/04/19 05:52:06;;;;;;;1.75;0.30;;;;;;;19.52;42.33;100197.72;5003458;28;20033;-52
2022/04/19 05:54:31;;;;;;;1.15;0.30;;;;;;;19.52;42.19;100192.44;5004084;28;20392;-50
2022/04/19 05:56:56;;;;;;;2.25;0.60;;;;;;;19.53;42.33;100201.16;5004552;28;20069;-50
2022/04/19 05:59:22;;;;;;;3.08;0.30;;;;;;;19.53;42.34;100193.25;5000882;28;20124;-50
2022/04/19 06:07:15;;;;;;;0.77;0.30;;;;;;;19.51;42.17;100188.16;5003789;28;20503;-49
2022/04/19 06:09:40;;;;;;;1.75;0.28;;;;;;;19.50;42.28;100189.16;5003026;28;20046;-51
2022/04/19 06:12:06;;;;;;;2.33;0.30;;;;;;;19.50;42.20;100197.09;4995882;28;20129;-49
2022/04/19 06:14:31;;;;;;;2.88;0.50;;;;;;;19.50;42.27;100190.97;4998361;28;20076;-49
2022/04/19 06:16:57;;;;;;;1.02;0.45;;;;;;;19.49;42.25;100192.81;4999990;28;20092;-48
2022/04/19 06:19:22;;;;;;;1.60;0.32;;;;;;;19.49;41.98;100192.81;5005185;28;20040;-47
2022/04/19 06:21:48;;;;;;;2.13;0.40;;;;;;;19.49;42.00;100197.28;5006577;28;20519;-50
2022/04/19 06:24:14;;;;;;;0.80;0.30;;;;;;;19.49;42.06;100192.00;5007034;28;20083;-48
2022/04/19 06:26:39;;;;;;;1.15;0.30;;;;;;;19.49;41.90;100197.28;5006269;28;20540;-49
2022/04/19 06:29:06;;;;;;;1.00;0.30;;;;;;;19.48;42.00;100187.75;5003548;28;20374;-47
2022/04/19 06:31:32;;;;;;;2.90;0.45;;;;;;;19.48;42.12;100188.56;5007071;28;20388;-48
2022/04/19 06:33:58;;;;;;;3.42;0.43;;;;;;;19.47;42.13;100186.94;5006444;28;20030;-50
2022/04/19 06:36:23;;;;;;;1.33;0.30;;;;;;;19.47;41.90;100178.19;5003066;28;20024;-49
2022/04/19 06:38:49;;;;;;;2.85;0.30;;;;;;;19.46;42.25;100182.66;5009174;28;20026;-47
2022/04/19 06:41:14;;;;;;;0.65;0.30;;;;;;;19.47;41.89;100183.47;5008771;28;20048;-49
2022/04/19 06:43:40;;;;;;;0.70;0.30;;;;;;;19.46;41.95;100176.56;5007887;28;20037;-49
2022/04/19 06:46:05;;;;;;;0.93;0.30;;;;;;;19.46;41.90;100172.09;5003112;28;20482;-48
2022/04/19 06:48:31;;;;;;;1.60;0.30;;;;;;;19.46;42.05;100177.38;5004075;28;20190;-48
2022/04/19 06:50:58;;;;;;;1.67;0.30;;;;;;;19.47;41.87;100172.91;5008433;28;20105;-48
2022/04/19 06:53:26;;;;;;;2.15;0.40;;;;;;;19.48;41.91;100169.25;5009040;28;20047;-46
2022/04/19 06:55:51;;;;;;;0.70;0.30;;;;;;;19.47;41.94;100173.72;5008894;28;20164;-50
2022/04/19 06:58:16;;;;;;;1.15;0.30;;;;;;;19.48;41.98;100169.25;5008641;28;20128;-48
2022/04/19 07:00:42;;;;;;;3.70;0.50;;;;;;;19.48;41.97;100174.53;5008720;28;20187;-49
2022/04/19 07:03:07;;;;;;;1.10;0.50;;;;;;;19.47;42.06;100163.16;4999846;28;20045;-50
2022/04/19 07:05:33;;;;;;;1.80;0.20;;;;;;;19.47;41.95;100168.44;4998163;28;20034;-53
2022/04/19 07:07:59;;;;;;;1.60;0.38;;;;;;;19.48;42.28;100163.97;5001345;28;20449;-52
2022/04/19 07:10:24;;;;;;;1.15;0.40;;;;;;;19.49;42.84;100160.31;5007555;28;20034;-53
2022/04/19 07:12:49;;;;;;;2.08;0.40;;;;;;;19.50;43.18;100160.09;5002215;28;20099;-51
2022/04/19 07:15:15;;;;;;;2.95;0.38;;;;;;;19.57;44.10;100161.94;5006749;28;20025;-43
2022/04/19 07:17:41;;;;;;;2.63;0.50;;;;;;;19.60;44.15;100157.03;4996078;28;20030;-45
2022/04/19 07:28:19;;;;;;;3.28;0.40;;;;;;;19.54;44.36;100148.13;5005495;28;20116;-52
2022/04/19 07:30:46;;;;;;;1.20;0.32;;;;;;;19.55;44.33;100144.44;5003816;28;20144;-46
2022/04/19 07:33:11;;;;;;;2.80;0.40;;;;;;;19.57;44.29;100146.88;4999017;28;20026;-44
2022/04/19 07:35:37;;;;;;;0.77;0.25;;;;;;;19.57;44.33;100141.59;5004508;28;20081;-45
2022/04/19 07:38:02;;;;;;;1.70;0.30;;;;;;;19.58;44.09;100147.69;5002183;28;20136;-43
2022/04/19 07:40:29;;;;;;;2.17;0.40;;;;;;;19.60;44.21;100153.59;5007661;28;20037;-44
2022/04/19 07:42:55;;;;;;;1.30;0.40;;;;;;;19.59;44.03;100150.13;4999330;28;20135;-46
2022/04/19 07:45:20;;;;;;;2.08;0.32;;;;;;;19.62;44.58;100148.91;5005075;28;20085;-44
2022/04/19 07:47:47;;;;;;;3.67;0.40;;;;;;;19.68;45.02;100142.78;4996924;28;20037;-47
2022/04/19 07:50:13;;;;;;;1.20;0.30;;;;;;;19.66;44.47;100145.63;5011045;28;20192;-48
2022/04/19 07:52:39;;;;;;;4.55;0.40;;;;;;;19.66;44.12;100153.56;5002532;28;20080;-46
2022/04/19 07:55:04;;;;;;;2.22;0.30;;;;;;;19.64;43.29;100142.38;5003430;28;20033;-44
2022/04/19 07:57:30;;;;;;;2.70;0.30;;;;;;;19.62;42.39;100135.69;5001544;28;20397;-47
2022/04/19 07:59:55;;;;;;;2.92;0.40;;;;;;;19.61;41.63;100142.00;5002315;28;20026;-44
2022/04/19 08:02:21;;;;;;;2.78;0.40;;;;;;;19.60;40.66;100141.19;4999488;28;20037;-48
2022/04/19 08:04:47;;;;;;;1.23;0.40;;;;;;;19.58;39.73;100137.13;4996199;28;20034;-48
2022/04/19 08:07:12;;;;;;;2.17;0.30;;;;;;;19.58;39.34;100137.13;5003498;28;20030;-45
2022/04/19 08:09:39;;;;;;;2.05;0.80;;;;;;;19.57;38.99;100131.03;4999504;28;20029;-45
2022/04/19 08:12:05;;;;;;;2.78;0.40;;;;;;;19.57;38.59;100130.22;5002054;28;20181;-43
2022/04/19 08:14:31;;;;;;;1.35;0.40;;;;;;;19.56;37.83;100124.13;5003721;28;20100;-44
2022/04/19 08:16:57;;;;;;;3.83;0.43;;;;;;;19.55;37.30;100118.03;5002862;28;20421;-46
2022/04/19 08:19:23;;;;;;;3.63;0.40;;;;;;;19.55;36.91;100125.16;5003534;28;20115;-47
2022/04/19 08:21:50;;;;;;;2.92;0.30;;;;;;;19.53;36.69;100114.78;5002749;28;20033;-46
2022/04/19 08:24:15;;;;;;;1.73;0.32;;;;;;;19.54;36.38;100116.41;5002500;28;20052;-46
2022/04/19 08:26:41;;;;;;;1.63;0.40;;;;;;;19.51;36.17;100113.38;5002932;28;20465;-42
2022/04/19 08:29:07;;;;;;;2.03;0.45;;;;;;;19.47;36.03;100118.25;5002290;28;20040;-44
2022/04/19 08:31:34;;;;;;;1.35;0.40;;;;;;;19.46;35.91;100108.69;5003403;28;20366;-45
2022/04/19 08:33:59;;;;;;;2.65;0.52;;;;;;;19.47;35.88;100107.66;5001096;28;20029;-43
2022/04/19 08:36:24;;;;;;;1.73;0.47;;;;;;;19.48;36.19;100105.84;5002832;28;20033;-43
2022/04/19 08:38:50;;;;;;;1.85;0.30;;;;;;;19.48;36.42;100098.72;5003266;28;20029;-42
2022/04/19 08:41:21;;;;;;;2.00;0.50;;;;;;;19.46;36.50;100095.47;5000432;28;20176;-41
2022/04/19 08:43:46;;;;;;;0.65;0.30;;;;;;;19.48;36.74;100095.28;5001983;28;20071;-43
2022/04/19 08:46:12;;;;;;;9.63;0.50;;;;;;;19.49;36.73;100099.53;5002281;28;20033;-41
2022/04/19 08:48:40;;;;;;;7.55;0.52;;;;;;;19.48;37.12;100090.78;5002518;28;20503;-43
2022/04/19 08:51:09;;;;;;;4.85;0.60;;;;;;;19.48;37.14;100090.00;5002523;28;20493;-42
2022/04/19 08:59:06;;;;;;;2.42;0.40;;;;;;;19.43;36.29;100082.69;5001707;28;20044;-38
2022/04/19 09:01:31;;;;;;;8.93;0.50;;;;;;;19.43;36.04;100081.88;5003656;28;20473;-40
2022/04/19 09:03:57;;;;;;;2.10;0.30;;;;;;;19.44;36.28;100079.03;5004263;28;20026;-40
2022/04/19 09:06:51;;;;;;;3.22;0.52;;;;;;;19.41;35.24;100076.81;5003190;28;20451;-40
2022/04/19 09:09:21;;;;;;;1.48;0.50;;;;;;;19.41;35.68;100068.88;5001837;28;20042;-42
2022/04/19 09:11:46;;;;;;;1.95;0.43;;;;;;;19.41;35.46;100068.88;4998701;28;115984;-41
2022/04/19 09:14:12;;;;;;;1.73;0.40;;;;;;;19.41;35.14;100063.59;4997471;28;20042;-39
2022/04/19 09:16:38;;;;;;;2.17;0.40;;;;;;;19.41;34.85;100068.88;5000141;28;20483;-41
2022/04/19 09:19:03;;;;;;;0.98;0.30;;;;;;;19.40;35.30;100059.34;4995114;28;20434;-42
2022/04/19 09:21:37;;;;;;;5.88;0.55;;;;;;;19.38;35.49;100058.75;5000370;28;20022;-39
2022/04/19 09:24:16;;;;;;;4.57;0.50;;;;;;;19.35;34.79;100053.91;5002537;28;20052;-37
2022/04/19 09:26:45;;;;;;;5.82;0.85;;;;;;;19.37;35.25;100051.88;4996872;28;20052;-41
2022/04/19 09:29:23;;;;;;;1.60;0.52;;;;;;;19.34;35.24;100044.38;4999601;28;20034;-42
2022/04/19 09:31:51;;;;;;;1.83;0.70;;;;;;;19.38;35.58;100047.38;4997572;28;21744;-40
2022/04/19 09:34:24;;;;;;;6.07;0.90;;;;;;;19.38;35.78;100042.88;4999678;28;20036;-41
2022/04/19 09:36:53;;;;;;;5.40;0.60;;;;;;;19.40;35.84;100038.19;4998151;28;20096;-41
2022/04/19 09:39:26;;;;;;;6.70;0.65;;;;;;;19.42;35.94;100038.81;4997580;28;20511;-41
2022/04/19 09:42:05;;;;;;;3.92;0.75;;;;;;;19.43;35.99;100043.06;5001902;28;20061;-40
2022/04/19 09:44:39;;;;;;;7.68;0.82;;;;;;;19.43;36.19;100029.84;5000108;28;20029;-44
2022/04/19 09:47:10;;;;;;;4.75;0.75;;;;;;;19.46;36.41;100034.72;4999825;28;20045;-40
2022/04/19 09:49:54;;;;;;;1.05;0.30;;;;;;;19.45;36.64;100027.81;4997632;28;20085;-42
2022/04/19 09:52:23;;;;;;;3.40;0.90;;;;;;;19.47;36.75;100023.13;4998382;28;20722;-41
2022/04/19 09:55:08;;;;;;;1.85;0.50;;;;;;;19.47;36.73;100024.97;5004133;28;20030;-41
2022/04/19 09:57:39;;;;;;;1.30;0.60;;;;;;;19.47;36.93;100020.47;5008765;28;20037;-41
2022/04/19 10:00:11;;;;;;;2.42;0.50;;;;;;;19.48;37.16;100014.19;5004182;28;20041;-40
2022/04/19 10:08:10;;;;;;;3.77;0.73;;;;;;;19.46;37.24;100010.94;5004009;28;20056;-40
2022/04/19 10:10:37;;;;;;;2.08;0.57;;;;;;;19.48;36.77;99998.31;5004777;28;20088;-41
2022/04/19 10:13:03;;;;;;;5.05;0.63;;;;;;;19.46;36.29;100005.66;5005767;28;20057;-38
2022/04/19 10:15:31;;;;;;;4.50;0.60;;;;;;;19.45;36.14;100001.41;5006044;28;20671;-43
2022/04/19 10:17:57;;;;;;;5.63;0.63;;;;;;;19.47;35.89;99994.06;5014308;28;20322;-42
2022/04/19 10:20:32;;;;;;;2.60;0.57;;;;;;;19.44;35.92;99999.78;5006006;28;20107;-41
2022/04/19 10:23:03;;;;;;;6.22;0.82;;;;;;;19.44;36.03;99993.69;5006243;28;20123;-43
2022/04/19 10:25:44;;;;;;;4.70;0.98;;;;;;;19.44;35.77;99991.03;5004631;28;20049;-41
2022/04/19 10:28:11;;;;;;;3.65;0.50;;;;;;;19.45;35.92;99990.81;5004213;28;20366;-42
2022/04/19 10:30:39;;;;;;;5.90;0.98;;;;;;;19.46;36.18;99994.28;5007611;28;20232;-41
2022/04/19 10:33:41;;;;;;;2.22;0.93;;;;;;;19.42;35.97;99985.97;5004422;28;20042;-38
2022/04/19 10:36:34;;;;;;;2.90;0.40;;;;;;;19.40;36.18;99989.84;5007739;28;20487;-44
2022/04/19 10:39:12;;;;;;;5.22;0.50;;;;;;;19.40;36.18;99987.19;5002450;28;20244;-42
2022/04/19 10:41:53;;;;;;;1.52;0.40;;;;;;;19.40;36.03;99990.66;5007293;28;20189;-45
2022/04/19 10:44:36;;;;;;;3.40;0.50;;;;;;;19.39;35.98;99983.75;5004738;28;20034;-40
2022/04/19 10:47:16;;;;;;;3.55;0.65;;;;;;;19.41;36.36;99983.53;5006512;28;20026;-40
2022/04/19 10:50:00;;;;;;;4.45;0.35;;;;;;;19.38;36.58;99984.78;5000229;28;20038;-45
2022/04/19 10:52:40;;;;;;;4.53;0.50;;;;;;;19.39;36.53;99985.59;5000040;28;20049;-43
2022/04/19 10:55:09;;;;;;;4.30;0.50;;;;;;;19.40;36.40;99993.28;5004174;28;20030;-44
2022/04/19 11:00:27;;;;;;;4.53;0.50;;;;;;;19.39;36.25;99986.41;4990695;28;20061;-49
2022/04/19 11:03:10;;;;;;;3.42;0.40;;;;;;;19.39;35.95;99983.75;4996122;28;20505;-48
2022/04/19 11:05:50;;;;;;;1.17;0.30;;;;;;;19.38;36.01;99974.22;5005043;28;20081;-45
2022/04/19 11:08:25;;;;;;;2.50;0.40;;;;;;;19.38;35.25;99974.22;4998178;28;20026;-46
2022/04/19 11:11:06;;;;;;;3.00;0.50;;;;;;;19.41;35.25;99978.25;5007873;28;20104;-45
2022/04/19 11:13:35;;;;;;;1.67;0.57;;;;;;;19.38;34.97;99974.22;5004940;28;20300;-45
2022/04/19 11:16:13;;;;;;;2.78;0.30;;;;;;;19.38;34.70;99974.22;5009412;28;20113;-47
2022/04/19 11:18:39;;;;;;;2.95;0.30;;;;;;;19.39;34.88;99978.47;5005822;28;20112;-44
2022/04/19 11:21:12;;;;;;;1.92;0.38;;;;;;;19.39;34.39;99964.44;5000968;28;20065;-45
2022/04/19 11:23:48;;;;;;;2.00;0.38;;;;;;;19.37;34.35;99964.69;4998255;28;20121;-46
2022/04/19 11:26:26;;;;;;;1.45;0.40;;;;;;;19.35;33.98;99964.09;5004723;28;20493;-42
2022/04/19 11:29:13;;;;;;;1.85;0.60;;;;;;;19.35;36.04;99964.09;5011456;28;20362;-44
2022/04/19 11:31:44;;;;;;;3.35;0.55;;;;;;;19.64;37.01;99961.88;5004223;28;20473;-40
2022/04/19 11:34:14;;;;;;;7.90;1.27;;;;;;;19.97;40.18;99967.66;4996328;28;20041;-44
2022/04/19 11:36:40;;;;;;;5.40;1.02;;;;;;;20.23;43.92;99971.09;4997748;28;20030;-41
2022/04/19 11:39:05;;;;;;;6.45;0.50;;;;;;;20.45;47.38;99959.06;5001792;28;20045;-42
2022/04/19 11:46:44;;;;;;;92.15;82.30;;;;;;;20.96;47.76;99952.53;5004155;28;20041;-43
2022/04/19 11:49:30;;;;;;;38.22;34.22;;;;;;;20.84;46.21;99948.00;4999136;28;20469;-45
2022/04/19 11:51:58;;;;;;;23.92;20.00;;;;;;;20.68;45.09;99947.81;5003606;28;20371;-43
2022/04/19 11:54:26;;;;;;;15.20;13.10;;;;;;;20.57;44.57;99948.56;5005250;28;20041;-45
2022/04/19 11:56:57;;;;;;;16.40;11.07;;;;;;;20.47;44.31;99954.38;5005334;28;20370;-43
2022/04/19 11:59:33;;;;;;;15.32;10.68;;;;;;;20.39;44.27;99954.66;5004499;28;20030;-46
2022/04/19 12:02:00;;;;;;;14.75;11.25;;;;;;;20.36;44.07;99947.94;5004375;28;20128;-45
2022/04/19 12:04:27;;;;;;;15.52;12.75;;;;;;;20.44;44.52;99957.44;5004944;28;20049;-43
2022/04/19 12:06:54;;;;;;;17.55;14.82;;;;;;;20.53;44.44;99951.66;5004943;28;20021;-49
2022/04/19 12:09:20;;;;;;;20.63;12.80;;;;;;;20.57;43.95;99959.94;5003803;28;20502;-43
2022/04/19 12:11:48;;;;;;;13.85;11.73;;;;;;;20.56;43.98;99955.69;5003744;28;20025;-43
2022/04/19 12:14:32;;;;;;;15.45;11.40;;;;;;;20.53;43.98;99956.13;5006548;28;21032;-44
2022/04/19 12:16:59;;;;;;;17.95;11.38;;;;;;;20.49;43.36;99945.19;4993813;28;20030;-43
2022/04/19 12:19:41;;;;;;;13.10;10.82;;;;;;;20.43;43.60;99947.91;5002566;28;20042;-56